createdAt,value
2023-03-18T00:00:53.522Z,7.22
2023-03-18T00:03:22.787Z,7.25
2023-03-18T00:05:51.220Z,7.30
2023-03-18T00:08:20.869Z,7.57
2023-03-18T00:10:52.667Z,7.85
2023-03-18T00:13:22.061Z,7.28
2023-03-18T00:15:52.165Z,7.20
2023-03-18T00:18:20.601Z,7.35
2023-03-18T00:20:48.897Z,7.97
2023-03-18T00:23:18.041Z,8.05
2023-03-18T00:30:22.312Z,8.30
2023-03-18T00:32:52.896Z,8.30
2023-03-18T00:35:21.482Z,8.07
2023-03-18T00:37:49.726Z,8.25
2023-03-18T00:40:20.379Z,7.35
2023-03-18T00:42:57.409Z,8.15
2023-03-18T00:45:26.036Z,8.40
2023-03-18T00:47:56.500Z,7.22
2023-03-18T00:50:24.963Z,7.82
2023-03-18T00:52:53.429Z,7.47
2023-03-18T00:55:21.950Z,7.55
2023-03-18T00:57:51.222Z,7.38
2023-03-18T01:00:19.927Z,6.82
2023-03-18T01:02:49.620Z,7.53
2023-03-18T01:05:19.353Z,7.18
2023-03-18T01:07:48.219Z,6.95
2023-03-18T01:10:17.370Z,7.63
2023-03-18T01:12:48.289Z,7.00
2023-03-18T01:15:20.943Z,7.25
2023-03-18T01:17:50.901Z,7.53
2023-03-18T01:20:25.580Z,6.93
2023-03-18T01:22:56.970Z,7.60
2023-03-18T01:25:27.481Z,7.90
2023-03-18T01:27:57.284Z,7.80
2023-03-18T01:30:28.569Z,8.32
2023-03-18T01:33:01.024Z,7.90
2023-03-18T01:35:35.830Z,8.07
2023-03-18T01:38:05.944Z,7.82
2023-03-18T01:40:36.056Z,8.18
2023-03-18T01:43:14.279Z,8.10
2023-03-18T01:45:45.650Z,8.45
2023-03-18T01:52:08.856Z,7.22
2023-03-18T01:54:40.324Z,7.72
2023-03-18T01:57:09.716Z,7.65
2023-03-18T01:59:40.679Z,6.95
2023-03-18T02:02:10.802Z,8.00
2023-03-18T02:04:42.479Z,7.68
2023-03-18T02:07:18.068Z,7.93
2023-03-18T02:09:52.626Z,8.73
2023-03-18T02:12:24.493Z,8.07
2023-03-18T02:14:59.296Z,7.90
2023-03-18T02:17:30.338Z,8.32
2023-03-18T02:20:05.154Z,7.88
2023-03-18T02:22:41.556Z,7.32
2023-03-18T02:25:21.983Z,7.60
2023-03-18T02:27:56.373Z,7.97
2023-03-18T02:30:28.323Z,7.55
2023-03-18T02:32:59.116Z,7.45
2023-03-18T02:35:30.997Z,7.45
2023-03-18T02:38:02.729Z,8.07
2023-03-18T02:40:33.390Z,8.10
2023-03-18T02:43:26.003Z,8.43
2023-03-18T02:46:13.491Z,8.07
2023-03-18T02:48:47.991Z,7.70
2023-03-18T02:51:18.488Z,7.90
2023-03-18T02:53:51.207Z,7.70
2023-03-18T02:56:23.746Z,8.00
2023-03-18T02:58:53.471Z,8.02
2023-03-18T03:01:28.296Z,7.95
2023-03-18T03:03:57.802Z,7.30
2023-03-18T03:06:27.313Z,7.72
2023-03-18T03:08:59.170Z,7.53
2023-03-18T03:11:32.360Z,7.43
2023-03-18T03:14:09.958Z,7.25
2023-03-18T03:16:44.391Z,7.05
2023-03-18T03:19:16.879Z,7.47
2023-03-18T03:21:46.256Z,6.85
2023-03-18T03:24:17.904Z,7.60
2023-03-18T03:26:47.722Z,7.10
2023-03-18T03:29:18.970Z,7.60
2023-03-18T03:31:49.722Z,7.45
2023-03-18T03:34:19.877Z,6.28
2023-03-18T03:36:52.916Z,7.03
2023-03-18T03:39:22.427Z,7.13
2023-03-18T03:41:53.964Z,7.10
2023-03-18T03:44:24.998Z,7.03
2023-03-18T03:46:56.991Z,7.70
2023-03-18T03:49:26.877Z,7.35
2023-03-18T03:51:59.769Z,6.88
2023-03-18T03:54:32.857Z,7.40
2023-03-18T03:57:04.470Z,6.97
2023-03-18T03:59:38.209Z,7.65
2023-03-18T04:02:26.700Z,7.18
2023-03-18T04:04:56.792Z,7.10
2023-03-18T04:07:30.304Z,7.25
2023-03-18T04:09:59.466Z,6.95
2023-03-18T04:12:28.666Z,7.65
2023-03-18T04:15:01.916Z,6.90
2023-03-18T04:17:36.334Z,7.65
2023-03-18T04:20:08.250Z,7.35
2023-03-18T04:22:37.855Z,7.57
2023-03-18T04:25:16.119Z,7.65
2023-03-18T04:27:45.973Z,8.30
2023-03-18T04:30:15.833Z,7.82
2023-03-18T04:33:01.216Z,7.60
2023-03-18T04:35:30.837Z,7.28
2023-03-18T04:37:59.627Z,7.85
2023-03-18T04:40:28.575Z,6.82
2023-03-18T04:42:57.522Z,7.93
2023-03-18T04:45:28.072Z,7.72
2023-03-18T04:48:00.114Z,8.15
2023-03-18T04:50:30.811Z,7.22
2023-03-18T04:53:00.118Z,7.22
2023-03-18T04:55:31.002Z,7.40
2023-03-18T04:58:02.259Z,7.03
2023-03-18T05:00:34.118Z,6.97
2023-03-18T05:03:16.692Z,7.22
2023-03-18T05:05:45.136Z,7.80
2023-03-18T05:08:15.526Z,7.80
2023-03-18T05:10:44.067Z,7.65
2023-03-18T05:13:16.107Z,8.25
2023-03-18T05:15:44.556Z,7.35
2023-03-18T05:18:14.064Z,9.25
2023-03-18T05:20:45.980Z,8.02
2023-03-18T05:23:16.704Z,8.77
2023-03-18T05:25:51.356Z,8.05
2023-03-18T05:28:22.378Z,7.93
2023-03-18T05:31:06.566Z,7.55
2023-03-18T05:33:38.528Z,8.35
2023-03-18T05:36:09.311Z,8.43
2023-03-18T05:38:45.282Z,8.32
2023-03-18T05:41:13.721Z,7.93
2023-03-18T05:43:43.533Z,8.30
2023-03-18T05:46:12.752Z,7.80
2023-03-18T05:49:13.296Z,7.90
2023-03-18T05:51:53.759Z,7.57
2023-03-18T05:54:34.519Z,8.20
2023-03-18T05:57:04.176Z,7.97
2023-03-18T06:02:37.713Z,7.85
2023-03-18T06:05:06.355Z,7.85
2023-03-18T06:07:36.571Z,7.40
2023-03-18T06:10:05.085Z,8.48
2023-03-18T06:12:33.787Z,7.97
2023-03-18T06:15:02.369Z,8.07
2023-03-18T06:17:31.378Z,8.18
2023-03-18T06:20:00.054Z,7.18
2023-03-18T06:22:28.623Z,7.97
2023-03-18T06:24:58.530Z,7.55
2023-03-18T06:27:26.975Z,8.18
2023-03-18T06:30:02.605Z,7.85
2023-03-18T06:32:31.160Z,7.32
2023-03-18T06:34:59.623Z,7.90
2023-03-18T06:37:29.187Z,7.05
2023-03-18T06:39:58.851Z,7.57
2023-03-18T06:42:27.180Z,7.13
2023-03-18T06:45:02.243Z,7.82
2023-03-18T06:47:42.897Z,8.63
2023-03-18T06:50:13.461Z,9.60
2023-03-18T06:52:42.230Z,10.38
2023-03-18T06:55:15.073Z,9.13
2023-03-18T06:57:46.515Z,9.90
2023-03-18T07:00:18.147Z,9.63
2023-03-18T07:02:46.792Z,9.13
2023-03-18T07:05:20.608Z,9.77
2023-03-18T07:07:49.481Z,8.48
2023-03-18T07:10:22.522Z,9.32
2023-03-18T07:12:52.188Z,9.57
2023-03-18T07:15:22.500Z,9.50
2023-03-18T07:17:53.210Z,8.23
2023-03-18T07:20:22.166Z,9.55
2023-03-18T07:22:51.286Z,8.90
2023-03-18T07:25:23.091Z,8.95
2023-03-18T07:27:52.080Z,9.20
2023-03-18T07:30:21.205Z,9.82
2023-03-18T07:32:49.767Z,9.43
2023-03-18T07:35:18.392Z,9.38
2023-03-18T07:37:47.190Z,8.88
2023-03-18T07:40:16.867Z,8.65
2023-03-18T07:42:46.543Z,8.60
2023-03-18T07:45:14.816Z,9.02
2023-03-18T07:47:43.728Z,8.23
2023-03-18T07:50:13.548Z,7.82
2023-03-18T07:52:41.851Z,8.40
2023-03-18T07:55:10.629Z,8.25
2023-03-18T07:57:38.915Z,7.80
2023-03-18T08:00:10.416Z,8.07
2023-03-18T08:02:41.408Z,7.78
2023-03-18T08:05:10.170Z,7.85
2023-03-18T08:07:39.196Z,8.70
2023-03-18T08:10:08.862Z,8.02
2023-03-18T08:12:51.659Z,7.90
2023-03-18T08:15:22.240Z,7.18
2023-03-18T08:17:50.723Z,7.00
2023-03-18T08:20:19.380Z,7.32
2023-03-18T08:22:48.402Z,6.78
2023-03-18T08:25:16.856Z,6.68
2023-03-18T08:27:45.198Z,6.35
2023-03-18T08:30:14.964Z,6.07
2023-03-18T08:32:44.711Z,5.15
2023-03-18T08:35:13.460Z,5.72
2023-03-18T08:37:42.555Z,5.43
2023-03-18T08:40:11.743Z,5.60
2023-03-18T08:42:40.149Z,4.60
2023-03-18T08:45:09.468Z,4.55
2023-03-18T08:47:37.970Z,4.30
2023-03-18T08:50:08.948Z,4.63
2023-03-18T08:52:38.465Z,3.80
2023-03-18T08:55:07.580Z,3.15
2023-03-18T08:57:35.912Z,4.20
2023-03-18T09:00:05.345Z,3.67
2023-03-18T09:02:33.999Z,3.50
2023-03-18T09:05:02.322Z,3.20
2023-03-18T09:07:31.989Z,3.13
2023-03-18T09:10:00.261Z,2.80
2023-03-18T09:12:28.615Z,2.95
2023-03-18T09:14:57.453Z,3.10
2023-03-18T09:17:40.315Z,2.88
2023-03-18T09:20:16.393Z,3.10
2023-03-18T09:22:49.240Z,2.67
2023-03-18T09:25:19.903Z,3.30
2023-03-18T09:27:48.748Z,3.08
2023-03-18T09:30:17.192Z,3.20
2023-03-18T09:32:45.718Z,3.10
2023-03-18T09:35:14.631Z,2.80
2023-03-18T09:37:43.830Z,2.97
2023-03-18T09:40:19.064Z,3.10
2023-03-18T09:42:52.429Z,2.80
2023-03-18T09:45:22.833Z,2.75
2023-03-18T09:48:03.267Z,2.75
2023-03-18T09:50:39.008Z,2.65
2023-03-18T09:53:12.833Z,3.08
2023-03-18T09:55:46.904Z,2.58
2023-03-18T09:58:23.402Z,2.55
2023-03-18T10:00:53.499Z,2.65
2023-03-18T10:03:27.929Z,2.33
2023-03-18T10:05:58.773Z,2.10
2023-03-18T10:08:34.552Z,2.50
2023-03-18T10:11:06.934Z,2.13
2023-03-18T10:13:37.387Z,2.45
2023-03-18T10:16:07.154Z,2.42
2023-03-18T10:18:37.299Z,2.60
2023-03-18T10:21:09.104Z,2.58
2023-03-18T10:23:41.728Z,2.33
2023-03-18T10:26:15.653Z,2.13
2023-03-18T10:28:58.309Z,2.65
2023-03-18T10:31:34.067Z,2.20
2023-03-18T10:34:03.717Z,2.10
2023-03-18T10:36:36.630Z,2.50
2023-03-18T10:39:05.320Z,2.70
2023-03-18T10:41:37.516Z,2.25
2023-03-18T10:44:08.321Z,2.22
2023-03-18T10:46:38.569Z,2.20
2023-03-18T10:49:08.895Z,2.40
2023-03-18T10:51:42.042Z,2.17
2023-03-18T10:54:12.586Z,2.40
2023-03-18T10:56:42.821Z,2.22
2023-03-18T10:59:16.239Z,2.15
2023-03-18T11:01:45.606Z,1.90
2023-03-18T11:04:15.203Z,2.05
2023-03-18T11:06:46.759Z,1.75
2023-03-18T11:09:17.967Z,2.33
2023-03-18T11:11:48.568Z,1.67
2023-03-18T11:14:18.047Z,1.80
2023-03-18T11:16:49.437Z,1.80
2023-03-18T11:19:27.847Z,1.90
2023-03-18T11:22:04.638Z,1.95
2023-03-18T11:24:39.149Z,1.90
2023-03-18T11:27:24.153Z,1.40
2023-03-18T11:29:56.058Z,1.70
2023-03-18T11:32:25.939Z,1.50
2023-03-18T11:34:57.273Z,1.60
2023-03-18T11:37:29.107Z,1.40
2023-03-18T11:40:09.040Z,1.83
2023-03-18T11:42:40.403Z,1.80
2023-03-18T11:45:20.156Z,1.65
2023-03-18T11:47:48.992Z,1.58
2023-03-18T11:50:20.295Z,1.50
2023-03-18T11:52:53.201Z,1.48
2023-03-18T11:55:27.130Z,1.30
2023-03-18T11:58:13.486Z,1.40
2023-03-18T12:00:46.633Z,2.05
2023-03-18T18:03:50.886Z,11.10
2023-03-18T18:06:20.872Z,29.67
2023-03-18T18:08:50.668Z,21.15
2023-03-18T18:11:20.956Z,11.75
2023-03-18T18:13:49.386Z,8.77
2023-03-18T18:16:18.746Z,8.82
2023-03-18T18:18:49.605Z,9.30
2023-03-18T18:21:21.361Z,9.60
2023-03-18T18:23:49.774Z,9.30
2023-03-18T18:26:19.488Z,8.45
2023-03-18T18:28:48.623Z,9.40
2023-03-18T18:31:19.128Z,9.73
2023-03-18T18:33:49.620Z,9.60
2023-03-18T18:36:18.300Z,10.13
2023-03-18T18:38:48.062Z,10.35
2023-03-18T18:41:16.355Z,9.93
2023-03-18T18:43:44.604Z,10.00
2023-03-18T18:46:14.864Z,9.25
2023-03-18T18:48:45.388Z,9.77
2023-03-18T18:51:16.693Z,9.27
2023-03-18T18:53:45.354Z,9.52
2023-03-18T18:56:18.777Z,7.28
2023-03-18T18:58:47.656Z,6.90
2023-03-18T19:01:16.292Z,6.80
2023-03-18T19:03:44.673Z,7.07
2023-03-18T19:06:20.707Z,7.38
2023-03-18T19:08:49.159Z,7.35
2023-03-18T19:11:18.900Z,8.70
2023-03-18T19:13:47.566Z,9.18
2023-03-18T19:16:20.764Z,8.18
2023-03-18T19:18:49.684Z,7.45
2023-03-18T19:21:18.007Z,6.78
2023-03-18T19:23:46.760Z,6.18
2023-03-18T19:26:15.904Z,6.18
2023-03-18T19:28:59.038Z,6.00
2023-03-18T19:31:30.331Z,5.80
2023-03-18T19:34:00.192Z,5.80
2023-03-18T19:36:29.715Z,5.60
2023-03-18T19:38:59.070Z,5.00
2023-03-18T19:41:27.596Z,5.82
2023-03-18T19:44:00.383Z,5.95
2023-03-18T19:46:32.059Z,6.45
2023-03-18T19:49:00.896Z,6.07
2023-03-18T19:51:29.166Z,6.95
2023-03-18T19:53:57.628Z,7.28
2023-03-18T19:56:26.343Z,6.00
2023-03-18T19:58:55.599Z,5.65
2023-03-18T20:01:25.320Z,5.18
2023-03-18T20:03:55.585Z,4.90
2023-03-18T20:06:23.911Z,5.20
2023-03-18T20:08:52.243Z,5.10
2023-03-18T20:11:21.727Z,4.68
2023-03-18T20:13:50.738Z,4.72
2023-03-18T20:16:21.552Z,4.72
2023-03-18T20:18:51.540Z,5.00
2023-03-18T20:21:23.873Z,4.82
2023-03-18T20:23:53.760Z,5.18
2023-03-18T20:26:22.703Z,5.38
2023-03-18T20:28:55.418Z,7.38
2023-03-18T20:31:23.918Z,6.80
2023-03-18T20:33:53.571Z,7.95
2023-03-18T20:36:21.892Z,6.95
2023-03-18T20:38:51.342Z,7.60
2023-03-18T20:41:20.900Z,8.52
2023-03-18T20:43:50.117Z,7.45
2023-03-18T20:46:18.702Z,7.53
2023-03-18T20:48:49.257Z,7.15
2023-03-18T20:51:24.108Z,7.32
2023-03-18T20:53:52.458Z,6.75
2023-03-18T20:56:22.757Z,7.93
2023-03-18T20:58:51.106Z,8.60
2023-03-18T21:01:19.894Z,8.80
2023-03-18T21:03:48.795Z,8.43
2023-03-18T21:06:19.160Z,7.03
2023-03-18T21:08:48.868Z,7.22
2023-03-18T21:11:22.509Z,6.82
2023-03-18T21:13:51.179Z,6.25
2023-03-18T21:16:20.975Z,5.55
2023-03-18T21:18:49.822Z,5.03
2023-03-18T21:21:23.958Z,5.50
2023-03-18T21:23:54.037Z,5.13
2023-03-18T21:26:22.613Z,4.95
2023-03-18T21:28:50.909Z,4.18
2023-03-18T21:31:24.314Z,4.75
2023-03-18T21:33:53.396Z,4.85
2023-03-18T21:36:21.690Z,5.15
2023-03-18T21:38:50.072Z,4.38
2023-03-18T21:41:23.625Z,4.55
2023-03-18T21:43:52.254Z,4.70
2023-03-18T21:46:22.403Z,7.82
2023-03-18T21:48:50.812Z,7.07
2023-03-18T21:51:37.957Z,9.00
2023-03-18T21:54:07.536Z,7.22
2023-03-18T21:56:37.176Z,6.88
2023-03-18T21:59:05.508Z,6.95
2023-03-18T22:01:34.151Z,5.80
2023-03-18T22:04:02.715Z,6.20
2023-03-18T22:06:31.171Z,6.22
2023-03-18T22:08:59.569Z,6.15
2023-03-18T22:11:29.190Z,5.97
2023-03-18T22:13:58.957Z,5.80
2023-03-18T22:16:27.273Z,6.13
2023-03-18T22:18:55.654Z,6.13
2023-03-18T22:21:25.184Z,6.40
2023-03-18T22:23:55.536Z,7.22
2023-03-18T22:26:24.061Z,6.90
2023-03-18T22:28:52.323Z,7.18
2023-03-18T22:31:23.261Z,7.07
2023-03-18T22:33:51.993Z,6.57
2023-03-18T22:36:21.550Z,6.97
2023-03-18T22:38:53.089Z,7.53
2023-03-18T22:41:22.901Z,7.55
2023-03-18T22:43:51.668Z,6.95
2023-03-18T22:46:21.396Z,8.05
2023-03-18T22:48:49.707Z,9.27
2023-03-18T22:51:21.770Z,8.45
2023-03-18T22:53:51.294Z,8.60
2023-03-18T22:56:20.180Z,8.30
2023-03-18T22:58:48.512Z,8.98
2023-03-18T23:01:18.609Z,8.57
2023-03-18T23:03:48.891Z,8.00
2023-03-18T23:06:18.483Z,7.90
2023-03-18T23:08:46.926Z,9.00
2023-03-18T23:11:15.596Z,8.52
2023-03-18T23:13:44.942Z,8.38
2023-03-18T23:16:15.485Z,8.98
2023-03-18T23:18:43.826Z,8.30
2023-03-18T23:21:16.288Z,7.90
2023-03-18T23:23:44.578Z,8.23
2023-03-18T23:26:12.918Z,9.02
2023-03-18T23:28:44.962Z,7.00
2023-03-18T23:31:13.613Z,7.10
2023-03-18T23:33:41.952Z,7.13
2023-03-18T23:36:10.563Z,7.00
2023-03-18T23:38:40.440Z,7.07
2023-03-18T23:41:09.107Z,7.45
2023-03-18T23:43:37.593Z,6.85
2023-03-18T23:46:06.172Z,6.38
2023-03-18T23:48:34.589Z,7.03
2023-03-18T23:51:02.990Z,6.88
2023-03-18T23:53:31.316Z,5.93
2023-03-18T23:56:00.947Z,6.07
2023-03-18T23:58:29.207Z,6.32
